EW7735 Weather Reports


Display with metric or nautical units.
time (UTC)temp
F
wind
direction
speed
MPH
gust
MPH
rain 1hr
in
rain 24hr
in
rain mn
in
humidity
%
barometer
mb
20260906191504 101 241 1.0 7.0 0.00 0.00 0.00 35 1010.5
20260906190116 100 226 4.0 9.0 0.00 0.00 0.00 34 1010.6
20260906184555 99 176 1.0 6.0 0.00 0.00 0.00 39 1010.8
20260906183113 99 164 1.0 10.0 0.00 0.00 0.00 37 1011.1
20260906181628 99 152 3.0 8.0 0.00 0.00 0.00 38 1011.3
20260906180132 99 155 2.0 8.0 0.00 0.00 0.00 38 1011.7
20260906174631 100 193 3.0 7.0 0.00 0.00 0.00 39 1012.0
20260906173058 100 174 1.0 4.0 0.00 0.00 0.00 40 1012.2
20260906171609 98 154 1.0 7.0 0.00 0.00 0.00 42 1012.4
20260906164556 98 152 2.0 6.0 0.00 0.00 0.00 41 1012.8
20260906163018 97 112 0.0 4.0 0.00 0.00 0.00 43 1012.9
20260906161520 95 281 1.0 4.0 0.00 0.00 0.00 46 1013.0
20260906160014 95 283 0.0 3.0 0.00 0.00 0.00 47 1013.0
20260906154545 95 325 1.0 4.0 0.00 0.00 0.00 47 1012.9
20260906153039 94 150 0.0 4.0 0.00 0.00 0.00 49 1012.8
20260906151548 93 247 1.0 3.0 0.00 0.00 0.00 52 1012.8
20260906150024 90 347 1.0 4.0 0.00 0.00 0.00 55 1012.7
20260906144518 89 228 0.0 3.0 0.00 0.00 0.00 58 1012.7
20260906143025 88 228 0.0 2.0 0.00 0.00 0.00 60 1012.7
20260906141550 87 228 1.0 4.0 0.00 0.00 0.00 61 1012.6
20260906134621 85 153 1.0 4.0 0.00 0.00 0.00 65 1012.5
20260906133122 83 137 1.0 4.0 0.00 0.00 0.00 67 1012.4
20260906131608 82 137 2.0 4.0 0.00 0.00 0.00 69 1012.4
20260906130024 81 137 1.0 2.0 0.00 0.00 0.00 72 1012.4
20260906124631 79 239 0.0 0.0 0.00 0.00 0.00 76 1012.3
20260906123110 78 1 0.0 1.0 0.00 0.00 0.00 76 1012.0
20260906121630 78 1 0.0 1.0 0.00 0.00 0.00 75 1011.9
20260906120127 78 1 0.0 1.0 0.00 0.00 0.00 74 1011.8
20260906114627 79 1 0.0 1.0 0.00 0.00 0.00 73 1011.5
20260906113107 79 1 0.0 0.0 0.00 0.00 0.00 73 1011.5
20260906111549 80 1 0.0 1.0 0.00 0.00 0.00 71 1011.3
20260906104624 80 1 0.0 0.0 0.00 0.00 0.00 70 1011.1
20260906103118 81 1 0.0 0.0 0.00 0.00 0.00 68 1011.0
20260906101555 82 1 0.0 1.0 0.00 0.00 0.00 66 1011.3
20260906100027 83 1 0.0 1.0 0.00 0.00 0.00 64 1011.2
20260906094556 84 1 0.0 1.0 0.00 0.00 0.00 62 1011.3
20260906093015 85 1 0.0 3.0 0.00 0.00 0.00 61 1010.9
20260906091539 85 1 0.0 3.0 0.00 0.00 0.00 60 1010.9
20260906090020 85 1 1.0 4.0 0.00 0.00 0.00 59 1010.8
20260906084630 85 1 0.0 3.0 0.00 0.00 0.00 59 1010.8
20260906083104 85 1 1.0 4.0 0.00 0.00 0.00 59 1010.6
20260906081547 84 1 0.0 5.0 0.00 0.00 0.00 61 1010.5
20260906074553 83 1 0.0 0.0 0.00 0.00 0.00 65 1010.4
20260906073057 82 1 0.0 0.0 0.00 0.00 0.00 67 1010.4
20260906071607 82 1 0.0 0.0 0.00 0.00 0.00 66 1010.6
20260906070110 83 1 0.0 0.0 0.00 0.00 0.00 65 1010.7
20260906064628 83 1 0.0 0.0 0.00 0.00 0.00 64 1010.6
20260906063110 83 1 0.0 0.0 0.00 0.00 0.00 64 1010.7
20260906061555 84 1 0.0 0.0 0.00 0.00 0.00 63 1010.7
20260906054505 85 1 0.0 0.0 0.00 0.00 0.00 60 1010.7
20260906053117 85 1 0.0 0.0 0.00 0.00 0.00 60 1010.7
20260906051558 85 1 0.0 0.0 0.00 0.00 0.00 60 1010.6
20260906050006 86 1 0.0 0.0 0.00 0.00 0.00 59 1010.4
20260906044543 86 1 0.0 0.0 0.00 0.00 0.00 58 1010.4
20260906043027 86 1 0.0 0.0 0.00 0.00 0.00 57 1010.5
20260906041518 87 1 0.0 0.0 0.00 0.00 0.00 55 1010.5
20260906034555 87 1 0.0 0.0 0.00 0.00 0.00 54 1010.5
20260906033022 88 1 0.0 0.0 0.00 0.00 0.00 54 1010.4
20260906031526 88 1 0.0 0.0 0.00 0.00 0.00 53 1010.4
20260906030011 89 1 0.0 0.0 0.00 0.00 0.00 52 1010.3
20260906024507 89 1 0.0 0.0 0.00 0.00 0.00 50 1010.3
20260906023012 89 1 0.0 0.0 0.00 0.00 0.00 49 1010.0
20260906021545 89 1 0.0 0.0 0.00 0.00 0.00 50 1009.7
20260906014630 91 112 0.0 0.0 0.00 0.00 0.00 47 1009.6
20260906013117 92 112 0.0 0.0 0.00 0.00 0.00 46 1009.4
20260906011632 93 112 0.0 0.0 0.00 0.00 0.00 44 1009.3
20260906010146 95 112 0.0 0.0 0.00 0.00 0.00 41 1009.3
20260906004627 96 112 0.0 1.0 0.00 0.00 0.00 39 1009.1
20260906003113 97 112 0.0 3.0 0.00 0.00 0.00 39 1009.1
20260906001600 98 112 0.0 2.0 0.00 0.00 0.00 38 1009.0
20260906000115 98 123 1.0 4.0 0.00 0.00 0.00 38 1009.0
20260905234548 99 133 0.0 4.0 0.00 0.00 0.00 37 1009.0
20260905233015 100 99 0.0 4.0 0.00 0.00 0.00 36 1008.8
20260905231513 99 163 0.0 8.0 0.00 0.00 0.00 36 1008.8
20260905224559 99 160 2.0 8.0 0.00 0.00 0.00 37 1008.9
20260905223111 99 153 1.0 10.0 0.00 0.00 0.00 36 1008.9
20260905221603 100 179 4.0 9.0 0.00 0.00 0.00 37 1009.0
20260905220021 100 187 4.0 9.0 0.00 0.00 0.00 37 1009.1
20260905214548 100 135 3.0 8.0 0.00 0.00 0.00 38 1009.3
20260905213013 99 135 4.0 10.0 0.00 0.00 0.00 38 1009.4
20260905211549 99 151 3.0 10.0 0.00 0.00 0.00 39 1009.7
20260905210037 99 156 1.0 10.0 0.00 0.00 0.00 38 1009.8
20260905204637 100 54 2.0 8.0 0.00 0.00 0.00 38 1010.1
20260905203103 99 216 2.0 9.0 0.00 0.00 0.00 39 1010.3
20260905201555 99 146 7.0 12.0 0.00 0.00 0.00 39 1010.6
20260905194622 98 129 7.0 15.0 0.00 0.00 0.00 41 1011.0
20260905193030 98 39 4.0 9.0 0.00 0.00 0.00 41 1011.2